sensor_id;sensor_type;location;lat;lon;timestamp;temperature;humidity
3406;DHT22;10008;48.682;9.016;2023-05-16T00:00:17;12.70;99.90
3406;DHT22;10008;48.682;9.016;2023-05-16T00:02:43;12.60;99.90
3406;DHT22;10008;48.682;9.016;2023-05-16T00:05:09;12.60;99.90
3406;DHT22;10008;48.682;9.016;2023-05-16T00:07:42;12.70;99.90
3406;DHT22;10008;48.682;9.016;2023-05-16T00:10:09;12.60;99.90
3406;DHT22;10008;48.682;9.016;2023-05-16T00:12:35;12.50;99.90
3406;DHT22;10008;48.682;9.016;2023-05-16T00:15:02;12.50;99.90
3406;DHT22;10008;48.682;9.016;2023-05-16T00:17:29;12.50;99.90
3406;DHT22;10008;48.682;9.016;2023-05-16T00:19:55;12.50;99.90
3406;DHT22;10008;48.682;9.016;2023-05-16T00:22:26;12.60;99.90
3406;DHT22;10008;48.682;9.016;2023-05-16T00:24:52;12.60;99.90
3406;DHT22;10008;48.682;9.016;2023-05-16T00:27:18;12.60;99.90
3406;DHT22;10008;48.682;9.016;2023-05-16T00:29:44;12.50;99.90
3406;DHT22;10008;48.682;9.016;2023-05-16T00:32:10;12.50;99.90
3406;DHT22;10008;48.682;9.016;2023-05-16T00:34:35;12.50;99.90
3406;DHT22;10008;48.682;9.016;2023-05-16T00:37:01;12.50;99.90
3406;DHT22;10008;48.682;9.016;2023-05-16T00:39:27;12.50;99.90
3406;DHT22;10008;48.682;9.016;2023-05-16T00:41:55;12.50;99.90
3406;DHT22;10008;48.682;9.016;2023-05-16T00:44:22;12.40;99.90
3406;DHT22;10008;48.682;9.016;2023-05-16T00:46:48;12.40;99.90
3406;DHT22;10008;48.682;9.016;2023-05-16T00:49:14;12.40;99.90
3406;DHT22;10008;48.682;9.016;2023-05-16T00:51:39;12.30;99.90
3406;DHT22;10008;48.682;9.016;2023-05-16T00:54:06;12.30;99.90
3406;DHT22;10008;48.682;9.016;2023-05-16T00:56:32;12.30;99.90
3406;DHT22;10008;48.682;9.016;2023-05-16T00:58:58;12.20;99.90
3406;DHT22;10008;48.682;9.016;2023-05-16T01:01:25;12.20;99.90
3406;DHT22;10008;48.682;9.016;2023-05-16T01:03:52;12.20;99.90
3406;DHT22;10008;48.682;9.016;2023-05-16T01:06:19;12.30;99.90
3406;DHT22;10008;48.682;9.016;2023-05-16T01:08:44;12.30;99.90
3406;DHT22;10008;48.682;9.016;2023-05-16T01:11:27;12.20;99.90
3406;DHT22;10008;48.682;9.016;2023-05-16T01:19:50;12.20;99.90
3406;DHT22;10008;48.682;9.016;2023-05-16T01:25:21;12.10;99.90
3406;DHT22;10008;48.682;9.016;2023-05-16T01:27:52;12.10;99.90
3406;DHT22;10008;48.682;9.016;2023-05-16T01:30:18;12.10;99.90
3406;DHT22;10008;48.682;9.016;2023-05-16T01:32:45;12.00;99.90
3406;DHT22;10008;48.682;9.016;2023-05-16T01:35:13;11.90;99.90
3406;DHT22;10008;48.682;9.016;2023-05-16T01:37:47;11.90;99.90
3406;DHT22;10008;48.682;9.016;2023-05-16T01:42:44;11.90;99.90
3406;DHT22;10008;48.682;9.016;2023-05-16T01:47:40;11.80;99.90
3406;DHT22;10008;48.682;9.016;2023-05-16T01:50:14;11.80;99.90
3406;DHT22;10008;48.682;9.016;2023-05-16T01:52:59;11.80;99.90
3406;DHT22;10008;48.682;9.016;2023-05-16T01:57:58;11.70;99.90
3406;DHT22;10008;48.682;9.016;2023-05-16T02:00:25;11.60;99.90
3406;DHT22;10008;48.682;9.016;2023-05-16T02:02:51;11.60;99.90
3406;DHT22;10008;48.682;9.016;2023-05-16T02:05:16;11.50;99.90
3406;DHT22;10008;48.682;9.016;2023-05-16T02:07:42;11.40;99.90
3406;DHT22;10008;48.682;9.016;2023-05-16T02:10:09;11.40;99.90
3406;DHT22;10008;48.682;9.016;2023-05-16T02:12:35;11.40;99.90
3406;DHT22;10008;48.682;9.016;2023-05-16T02:15:01;11.30;99.90
3406;DHT22;10008;48.682;9.016;2023-05-16T02:17:27;11.30;99.90
3406;DHT22;10008;48.682;9.016;2023-05-16T02:19:53;11.30;99.90
3406;DHT22;10008;48.682;9.016;2023-05-16T02:22:19;11.20;99.90
3406;DHT22;10008;48.682;9.016;2023-05-16T02:24:45;11.20;99.90
3406;DHT22;10008;48.682;9.016;2023-05-16T02:27:11;11.10;99.90
3406;DHT22;10008;48.682;9.016;2023-05-16T02:29:36;11.10;99.90
3406;DHT22;10008;48.682;9.016;2023-05-16T02:32:02;11.10;99.90
3406;DHT22;10008;48.682;9.016;2023-05-16T02:34:29;11.10;99.90
3406;DHT22;10008;48.682;9.016;2023-05-16T02:36:54;11.10;99.90
3406;DHT22;10008;48.682;9.016;2023-05-16T02:39:21;11.10;99.90
3406;DHT22;10008;48.682;9.016;2023-05-16T02:41:50;11.10;99.90
3406;DHT22;10008;48.682;9.016;2023-05-16T02:44:15;11.10;99.90
3406;DHT22;10008;48.682;9.016;2023-05-16T02:46:41;11.20;99.90
3406;DHT22;10008;48.682;9.016;2023-05-16T02:49:07;11.10;99.90
3406;DHT22;10008;48.682;9.016;2023-05-16T02:51:32;11.10;99.90
3406;DHT22;10008;48.682;9.016;2023-05-16T02:53:58;11.10;99.90
3406;DHT22;10008;48.682;9.016;2023-05-16T02:56:25;11.10;99.90
3406;DHT22;10008;48.682;9.016;2023-05-16T02:58:53;11.10;99.90
3406;DHT22;10008;48.682;9.016;2023-05-16T03:01:19;11.10;99.90
3406;DHT22;10008;48.682;9.016;2023-05-16T03:03:45;11.00;99.90
3406;DHT22;10008;48.682;9.016;2023-05-16T03:06:10;11.10;99.90
3406;DHT22;10008;48.682;9.016;2023-05-16T03:08:36;11.10;99.90
3406;DHT22;10008;48.682;9.016;2023-05-16T03:11:02;11.00;99.90
3406;DHT22;10008;48.682;9.016;2023-05-16T03:13:28;11.10;99.90
3406;DHT22;10008;48.682;9.016;2023-05-16T03:15:57;11.10;99.90
3406;DHT22;10008;48.682;9.016;2023-05-16T03:18:23;11.10;99.90
3406;DHT22;10008;48.682;9.016;2023-05-16T03:20:49;11.10;99.90
3406;DHT22;10008;48.682;9.016;2023-05-16T03:23:21;11.10;99.90
3406;DHT22;10008;48.682;9.016;2023-05-16T03:25:47;11.10;99.90
3406;DHT22;10008;48.682;9.016;2023-05-16T03:28:13;11.10;99.90
3406;DHT22;10008;48.682;9.016;2023-05-16T03:30:39;11.00;99.90
3406;DHT22;10008;48.682;9.016;2023-05-16T03:33:05;11.00;99.90
3406;DHT22;10008;48.682;9.016;2023-05-16T03:35:31;11.00;99.90
3406;DHT22;10008;48.682;9.016;2023-05-16T03:37:57;10.90;99.90
3406;DHT22;10008;48.682;9.016;2023-05-16T03:40:23;10.90;99.90
3406;DHT22;10008;48.682;9.016;2023-05-16T03:42:49;11.00;99.90
3406;DHT22;10008;48.682;9.016;2023-05-16T03:45:15;11.00;99.90
3406;DHT22;10008;48.682;9.016;2023-05-16T03:47:41;11.00;99.90
3406;DHT22;10008;48.682;9.016;2023-05-16T03:50:07;11.10;99.90
3406;DHT22;10008;48.682;9.016;2023-05-16T03:52:34;11.10;99.90
3406;DHT22;10008;48.682;9.016;2023-05-16T03:55:00;11.10;99.90
3406;DHT22;10008;48.682;9.016;2023-05-16T03:57:29;11.10;99.90
3406;DHT22;10008;48.682;9.016;2023-05-16T03:59:55;11.10;99.90
3406;DHT22;10008;48.682;9.016;2023-05-16T04:02:21;11.10;99.90
3406;DHT22;10008;48.682;9.016;2023-05-16T04:04:47;11.10;99.90
3406;DHT22;10008;48.682;9.016;2023-05-16T04:07:13;11.00;99.90
3406;DHT22;10008;48.682;9.016;2023-05-16T04:09:38;11.00;99.90
3406;DHT22;10008;48.682;9.016;2023-05-16T04:12:04;11.00;99.90
3406;DHT22;10008;48.682;9.016;2023-05-16T04:14:30;11.00;99.90
3406;DHT22;10008;48.682;9.016;2023-05-16T04:16:56;11.10;99.90
3406;DHT22;10008;48.682;9.016;2023-05-16T04:19:22;11.10;99.90
3406;DHT22;10008;48.682;9.016;2023-05-16T04:21:48;11.20;99.90
3406;DHT22;10008;48.682;9.016;2023-05-16T04:24:13;11.20;99.90
3406;DHT22;10008;48.682;9.016;2023-05-16T04:26:39;11.20;99.90
3406;DHT22;10008;48.682;9.016;2023-05-16T04:29:05;11.30;99.90
3406;DHT22;10008;48.682;9.016;2023-05-16T04:31:31;11.30;99.90
3406;DHT22;10008;48.682;9.016;2023-05-16T04:33:56;11.30;99.90
3406;DHT22;10008;48.682;9.016;2023-05-16T04:36:22;11.40;99.90
3406;DHT22;10008;48.682;9.016;2023-05-16T04:38:48;11.40;99.90
3406;DHT22;10008;48.682;9.016;2023-05-16T04:41:14;11.40;99.90
3406;DHT22;10008;48.682;9.016;2023-05-16T04:43:40;11.40;99.90
3406;DHT22;10008;48.682;9.016;2023-05-16T04:46:06;11.50;99.90
3406;DHT22;10008;48.682;9.016;2023-05-16T04:48:33;11.50;99.90
3406;DHT22;10008;48.682;9.016;2023-05-16T04:50:59;11.50;99.90
3406;DHT22;10008;48.682;9.016;2023-05-16T04:53:25;11.50;99.90
3406;DHT22;10008;48.682;9.016;2023-05-16T04:55:51;11.50;99.90
3406;DHT22;10008;48.682;9.016;2023-05-16T04:58:16;11.50;99.90
3406;DHT22;10008;48.682;9.016;2023-05-16T05:00:42;11.50;99.90
3406;DHT22;10008;48.682;9.016;2023-05-16T05:03:08;11.60;99.90
3406;DHT22;10008;48.682;9.016;2023-05-16T05:05:33;11.60;99.90
3406;DHT22;10008;48.682;9.016;2023-05-16T05:07:59;11.60;99.90
3406;DHT22;10008;48.682;9.016;2023-05-16T05:10:26;11.70;99.90
3406;DHT22;10008;48.682;9.016;2023-05-16T05:12:52;11.60;99.90
3406;DHT22;10008;48.682;9.016;2023-05-16T05:15:18;11.60;99.90
3406;DHT22;10008;48.682;9.016;2023-05-16T05:17:44;11.60;99.90
3406;DHT22;10008;48.682;9.016;2023-05-16T05:20:10;11.60;99.90
3406;DHT22;10008;48.682;9.016;2023-05-16T05:22:36;11.60;99.90
3406;DHT22;10008;48.682;9.016;2023-05-16T05:25:03;11.60;99.90
3406;DHT22;10008;48.682;9.016;2023-05-16T05:27:28;11.60;99.90
3406;DHT22;10008;48.682;9.016;2023-05-16T05:29:54;11.60;99.90
3406;DHT22;10008;48.682;9.016;2023-05-16T05:32:20;11.60;99.90
3406;DHT22;10008;48.682;9.016;2023-05-16T05:34:46;11.60;99.90
3406;DHT22;10008;48.682;9.016;2023-05-16T05:37:13;11.70;99.90
3406;DHT22;10008;48.682;9.016;2023-05-16T05:39:39;11.80;99.90
3406;DHT22;10008;48.682;9.016;2023-05-16T05:42:04;11.90;99.90
3406;DHT22;10008;48.682;9.016;2023-05-16T05:44:30;11.80;99.90
3406;DHT22;10008;48.682;9.016;2023-05-16T05:46:57;11.80;99.90
3406;DHT22;10008;48.682;9.016;2023-05-16T05:49:24;11.80;99.90
3406;DHT22;10008;48.682;9.016;2023-05-16T05:51:50;11.80;99.90
3406;DHT22;10008;48.682;9.016;2023-05-16T05:54:19;11.80;99.90
3406;DHT22;10008;48.682;9.016;2023-05-16T05:56:45;11.90;99.90
3406;DHT22;10008;48.682;9.016;2023-05-16T05:59:11;12.00;99.90
3406;DHT22;10008;48.682;9.016;2023-05-16T06:01:37;11.90;99.90
3406;DHT22;10008;48.682;9.016;2023-05-16T06:04:03;11.90;99.90
3406;DHT22;10008;48.682;9.016;2023-05-16T06:06:29;11.90;99.90
3406;DHT22;10008;48.682;9.016;2023-05-16T06:08:57;11.80;99.90
3406;DHT22;10008;48.682;9.016;2023-05-16T06:11:23;11.90;99.90
3406;DHT22;10008;48.682;9.016;2023-05-16T06:13:53;11.90;99.90
3406;DHT22;10008;48.682;9.016;2023-05-16T06:16:18;11.90;99.90
3406;DHT22;10008;48.682;9.016;2023-05-16T06:18:44;11.90;99.90
3406;DHT22;10008;48.682;9.016;2023-05-16T06:21:10;12.00;99.90
3406;DHT22;10008;48.682;9.016;2023-05-16T06:23:36;12.00;99.90
3406;DHT22;10008;48.682;9.016;2023-05-16T06:26:02;12.20;99.90
3406;DHT22;10008;48.682;9.016;2023-05-16T06:28:28;12.20;99.90
3406;DHT22;10008;48.682;9.016;2023-05-16T06:30:54;12.20;99.90
3406;DHT22;10008;48.682;9.016;2023-05-16T06:33:20;12.20;99.90
3406;DHT22;10008;48.682;9.016;2023-05-16T06:35:46;12.30;99.90
3406;DHT22;10008;48.682;9.016;2023-05-16T06:38:15;12.30;99.90
3406;DHT22;10008;48.682;9.016;2023-05-16T06:40:40;12.30;99.90
3406;DHT22;10008;48.682;9.016;2023-05-16T06:43:06;12.40;99.90
3406;DHT22;10008;48.682;9.016;2023-05-16T06:45:32;12.40;99.90
3406;DHT22;10008;48.682;9.016;2023-05-16T06:47:58;12.40;99.90
3406;DHT22;10008;48.682;9.016;2023-05-16T06:50:24;12.40;99.90
3406;DHT22;10008;48.682;9.016;2023-05-16T06:52:49;12.40;99.90
3406;DHT22;10008;48.682;9.016;2023-05-16T06:55:15;12.30;99.90
3406;DHT22;10008;48.682;9.016;2023-05-16T06:57:41;12.20;99.90
3406;DHT22;10008;48.682;9.016;2023-05-16T07:00:07;12.30;99.90
3406;DHT22;10008;48.682;9.016;2023-05-16T07:02:33;12.30;99.90
3406;DHT22;10008;48.682;9.016;2023-05-16T07:04:59;12.20;99.90
3406;DHT22;10008;48.682;9.016;2023-05-16T07:07:24;12.10;99.90
3406;DHT22;10008;48.682;9.016;2023-05-16T07:09:50;12.10;99.90
3406;DHT22;10008;48.682;9.016;2023-05-16T07:12:16;12.00;99.90
3406;DHT22;10008;48.682;9.016;2023-05-16T07:14:42;12.10;99.90
3406;DHT22;10008;48.682;9.016;2023-05-16T07:17:08;12.00;99.90
3406;DHT22;10008;48.682;9.016;2023-05-16T07:19:34;12.10;99.90
3406;DHT22;10008;48.682;9.016;2023-05-16T07:22:00;12.10;99.90
3406;DHT22;10008;48.682;9.016;2023-05-16T07:24:26;12.00;99.90
3406;DHT22;10008;48.682;9.016;2023-05-16T07:26:51;12.10;99.90
3406;DHT22;10008;48.682;9.016;2023-05-16T07:29:17;12.00;99.90
3406;DHT22;10008;48.682;9.016;2023-05-16T07:31:43;11.90;99.90
3406;DHT22;10008;48.682;9.016;2023-05-16T07:34:09;12.00;99.90
3406;DHT22;10008;48.682;9.016;2023-05-16T07:36:35;12.00;99.90
3406;DHT22;10008;48.682;9.016;2023-05-16T07:39:01;12.00;99.90
3406;DHT22;10008;48.682;9.016;2023-05-16T07:41:28;12.00;99.90
3406;DHT22;10008;48.682;9.016;2023-05-16T07:43:54;11.90;99.90
3406;DHT22;10008;48.682;9.016;2023-05-16T07:46:20;11.90;99.90
3406;DHT22;10008;48.682;9.016;2023-05-16T07:48:46;12.00;99.90
3406;DHT22;10008;48.682;9.016;2023-05-16T07:51:11;12.20;99.90
3406;DHT22;10008;48.682;9.016;2023-05-16T07:53:37;12.30;99.90
3406;DHT22;10008;48.682;9.016;2023-05-16T07:56:03;12.50;99.90
3406;DHT22;10008;48.682;9.016;2023-05-16T07:58:29;12.80;99.90
3406;DHT22;10008;48.682;9.016;2023-05-16T08:00:55;12.80;99.90
3406;DHT22;10008;48.682;9.016;2023-05-16T08:03:21;12.60;99.90
3406;DHT22;10008;48.682;9.016;2023-05-16T08:05:47;12.50;99.90
3406;DHT22;10008;48.682;9.016;2023-05-16T08:08:13;12.40;99.90
3406;DHT22;10008;48.682;9.016;2023-05-16T08:10:39;12.30;99.90
3406;DHT22;10008;48.682;9.016;2023-05-16T08:13:05;12.20;99.90
3406;DHT22;10008;48.682;9.016;2023-05-16T08:15:31;12.40;99.90
3406;DHT22;10008;48.682;9.016;2023-05-16T08:17:57;12.60;99.90
3406;DHT22;10008;48.682;9.016;2023-05-16T08:20:24;12.60;99.90
3406;DHT22;10008;48.682;9.016;2023-05-16T08:22:50;12.70;99.90
3406;DHT22;10008;48.682;9.016;2023-05-16T08:25:16;12.60;99.90
3406;DHT22;10008;48.682;9.016;2023-05-16T08:27:44;12.50;99.90
3406;DHT22;10008;48.682;9.016;2023-05-16T08:30:11;12.30;99.90
3406;DHT22;10008;48.682;9.016;2023-05-16T08:32:37;12.20;99.90
3406;DHT22;10008;48.682;9.016;2023-05-16T08:35:03;12.20;99.90
3406;DHT22;10008;48.682;9.016;2023-05-16T08:37:29;12.20;99.90
3406;DHT22;10008;48.682;9.016;2023-05-16T08:39:54;12.20;99.90
3406;DHT22;10008;48.682;9.016;2023-05-16T08:42:20;12.10;99.90
3406;DHT22;10008;48.682;9.016;2023-05-16T08:44:46;12.00;99.90
3406;DHT22;10008;48.682;9.016;2023-05-16T08:47:17;11.90;99.90
3406;DHT22;10008;48.682;9.016;2023-05-16T08:49:43;11.80;99.90
3406;DHT22;10008;48.682;9.016;2023-05-16T08:52:12;11.80;99.90
3406;DHT22;10008;48.682;9.016;2023-05-16T08:54:38;12.00;99.90
3406;DHT22;10008;48.682;9.016;2023-05-16T08:57:05;11.90;99.90
3406;DHT22;10008;48.682;9.016;2023-05-16T08:59:34;12.10;99.90
3406;DHT22;10008;48.682;9.016;2023-05-16T09:02:00;12.10;99.90
3406;DHT22;10008;48.682;9.016;2023-05-16T09:04:25;12.20;99.90
3406;DHT22;10008;48.682;9.016;2023-05-16T09:06:52;12.20;99.90
3406;DHT22;10008;48.682;9.016;2023-05-16T09:09:17;12.10;99.90
3406;DHT22;10008;48.682;9.016;2023-05-16T09:11:44;12.20;99.90
3406;DHT22;10008;48.682;9.016;2023-05-16T09:14:10;12.10;99.90
3406;DHT22;10008;48.682;9.016;2023-05-16T09:16:36;12.10;99.90
3406;DHT22;10008;48.682;9.016;2023-05-16T09:19:02;12.10;99.90
3406;DHT22;10008;48.682;9.016;2023-05-16T09:21:33;12.10;99.90
3406;DHT22;10008;48.682;9.016;2023-05-16T09:24:06;12.10;99.90
3406;DHT22;10008;48.682;9.016;2023-05-16T09:26:34;12.30;99.90
3406;DHT22;10008;48.682;9.016;2023-05-16T09:29:00;12.40;99.90
3406;DHT22;10008;48.682;9.016;2023-05-16T09:31:28;12.40;99.90
3406;DHT22;10008;48.682;9.016;2023-05-16T09:34:08;12.50;99.90
3406;DHT22;10008;48.682;9.016;2023-05-16T09:36:35;12.70;99.90
3406;DHT22;10008;48.682;9.016;2023-05-16T09:39:02;12.60;99.90
3406;DHT22;10008;48.682;9.016;2023-05-16T09:41:28;12.60;99.90
3406;DHT22;10008;48.682;9.016;2023-05-16T09:43:57;12.70;99.90
3406;DHT22;10008;48.682;9.016;2023-05-16T09:46:26;12.90;99.90
3406;DHT22;10008;48.682;9.016;2023-05-16T09:48:52;13.00;99.90
3406;DHT22;10008;48.682;9.016;2023-05-16T09:51:21;13.00;99.90
3406;DHT22;10008;48.682;9.016;2023-05-16T09:53:47;13.10;99.90
3406;DHT22;10008;48.682;9.016;2023-05-16T09:56:14;13.00;99.90
3406;DHT22;10008;48.682;9.016;2023-05-16T09:58:42;13.00;99.90
3406;DHT22;10008;48.682;9.016;2023-05-16T10:01:09;13.10;99.90
3406;DHT22;10008;48.682;9.016;2023-05-16T10:03:37;13.20;99.90
3406;DHT22;10008;48.682;9.016;2023-05-16T10:06:04;13.30;99.90
3406;DHT22;10008;48.682;9.016;2023-05-16T10:08:34;13.60;99.90
3406;DHT22;10008;48.682;9.016;2023-05-16T10:11:02;13.80;99.90
3406;DHT22;10008;48.682;9.016;2023-05-16T10:13:31;14.00;99.90
3406;DHT22;10008;48.682;9.016;2023-05-16T10:15:58;14.10;99.90
3406;DHT22;10008;48.682;9.016;2023-05-16T10:18:30;14.00;99.90
3406;DHT22;10008;48.682;9.016;2023-05-16T10:21:04;13.60;99.90
3406;DHT22;10008;48.682;9.016;2023-05-16T10:23:32;13.40;99.90
3406;DHT22;10008;48.682;9.016;2023-05-16T10:26:01;13.50;99.90
3406;DHT22;10008;48.682;9.016;2023-05-16T10:28:28;13.60;99.90
3406;DHT22;10008;48.682;9.016;2023-05-16T10:30:54;13.30;99.90
3406;DHT22;10008;48.682;9.016;2023-05-16T10:33:21;13.20;99.90
3406;DHT22;10008;48.682;9.016;2023-05-16T10:35:47;13.00;99.90
3406;DHT22;10008;48.682;9.016;2023-05-16T10:38:17;13.00;99.90
3406;DHT22;10008;48.682;9.016;2023-05-16T10:40:44;12.90;99.90
3406;DHT22;10008;48.682;9.016;2023-05-16T10:43:30;12.70;99.90
3406;DHT22;10008;48.682;9.016;2023-05-16T10:46:08;12.60;99.90
3406;DHT22;10008;48.682;9.016;2023-05-16T10:48:35;12.70;99.90
3406;DHT22;10008;48.682;9.016;2023-05-16T10:51:04;12.60;99.90
3406;DHT22;10008;48.682;9.016;2023-05-16T10:54:03;12.70;99.90
3406;DHT22;10008;48.682;9.016;2023-05-16T10:56:32;12.70;99.90
3406;DHT22;10008;48.682;9.016;2023-05-16T10:58:58;12.80;99.90
3406;DHT22;10008;48.682;9.016;2023-05-16T11:01:28;12.90;99.90
3406;DHT22;10008;48.682;9.016;2023-05-16T11:06:27;13.00;99.90
3406;DHT22;10008;48.682;9.016;2023-05-16T11:14:09;12.80;99.90
3406;DHT22;10008;48.682;9.016;2023-05-16T11:16:47;12.80;99.90
3406;DHT22;10008;48.682;9.016;2023-05-16T11:19:50;12.70;99.90
3406;DHT22;10008;48.682;9.016;2023-05-16T11:27:34;12.50;99.90
3406;DHT22;10008;48.682;9.016;2023-05-16T11:30:14;12.50;99.90
3406;DHT22;10008;48.682;9.016;2023-05-16T11:32:43;12.40;99.90
3406;DHT22;10008;48.682;9.016;2023-05-16T11:35:15;12.40;99.90
3406;DHT22;10008;48.682;9.016;2023-05-16T11:37:42;12.30;99.90
3406;DHT22;10008;48.682;9.016;2023-05-16T11:40:10;12.20;99.90
3406;DHT22;10008;48.682;9.016;2023-05-16T11:42:38;12.20;99.90
3406;DHT22;10008;48.682;9.016;2023-05-16T11:45:09;12.10;99.90
3406;DHT22;10008;48.682;9.016;2023-05-16T11:47:36;12.10;99.90
3406;DHT22;10008;48.682;9.016;2023-05-16T11:50:09;12.00;99.90
3406;DHT22;10008;48.682;9.016;2023-05-16T11:52:36;11.90;99.90
3406;DHT22;10008;48.682;9.016;2023-05-16T11:55:04;11.90;99.90
3406;DHT22;10008;48.682;9.016;2023-05-16T11:57:31;11.80;99.90
3406;DHT22;10008;48.682;9.016;2023-05-16T12:00:04;11.80;99.90
3406;DHT22;10008;48.682;9.016;2023-05-16T12:02:38;11.90;99.90
3406;DHT22;10008;48.682;9.016;2023-05-16T12:05:08;11.90;99.90
3406;DHT22;10008;48.682;9.016;2023-05-16T12:07:37;11.90;99.90
3406;DHT22;10008;48.682;9.016;2023-05-16T12:10:06;11.90;99.90
3406;DHT22;10008;48.682;9.016;2023-05-16T12:12:33;12.00;99.90
3406;DHT22;10008;48.682;9.016;2023-05-16T12:15:03;12.10;99.90
3406;DHT22;10008;48.682;9.016;2023-05-16T12:17:32;12.30;99.90
3406;DHT22;10008;48.682;9.016;2023-05-16T12:19:58;12.30;99.90
3406;DHT22;10008;48.682;9.016;2023-05-16T12:22:24;12.30;99.90
3406;DHT22;10008;48.682;9.016;2023-05-16T12:24:50;12.40;99.90
3406;DHT22;10008;48.682;9.016;2023-05-16T12:27:24;12.50;99.90
3406;DHT22;10008;48.682;9.016;2023-05-16T12:29:51;12.70;99.90
3406;DHT22;10008;48.682;9.016;2023-05-16T12:32:20;12.80;99.90
3406;DHT22;10008;48.682;9.016;2023-05-16T12:34:52;12.90;99.90
3406;DHT22;10008;48.682;9.016;2023-05-16T12:37:19;13.00;99.90
3406;DHT22;10008;48.682;9.016;2023-05-16T12:39:45;13.00;99.90
3406;DHT22;10008;48.682;9.016;2023-05-16T12:42:13;13.00;99.90
3406;DHT22;10008;48.682;9.016;2023-05-16T12:44:39;13.00;99.90
3406;DHT22;10008;48.682;9.016;2023-05-16T12:47:14;13.00;99.90
3406;DHT22;10008;48.682;9.016;2023-05-16T12:49:46;12.70;99.90
3406;DHT22;10008;48.682;9.016;2023-05-16T12:52:20;12.50;99.90
3406;DHT22;10008;48.682;9.016;2023-05-16T12:54:46;12.50;99.90
3406;DHT22;10008;48.682;9.016;2023-05-16T12:57:13;12.40;99.90
3406;DHT22;10008;48.682;9.016;2023-05-16T12:59:38;12.20;99.90
3406;DHT22;10008;48.682;9.016;2023-05-16T13:02:04;11.90;99.90
3406;DHT22;10008;48.682;9.016;2023-05-16T13:04:30;11.60;99.90
3406;DHT22;10008;48.682;9.016;2023-05-16T13:06:57;11.50;99.90
3406;DHT22;10008;48.682;9.016;2023-05-16T13:09:22;11.20;99.90
3406;DHT22;10008;48.682;9.016;2023-05-16T13:11:49;11.20;99.90
3406;DHT22;10008;48.682;9.016;2023-05-16T13:14:15;11.10;99.90
3406;DHT22;10008;48.682;9.016;2023-05-16T13:16:42;10.90;99.90
3406;DHT22;10008;48.682;9.016;2023-05-16T13:19:08;11.00;99.90
3406;DHT22;10008;48.682;9.016;2023-05-16T13:21:34;11.10;99.90
3406;DHT22;10008;48.682;9.016;2023-05-16T13:24:00;11.10;99.90
3406;DHT22;10008;48.682;9.016;2023-05-16T13:26:25;11.20;99.90
3406;DHT22;10008;48.682;9.016;2023-05-16T13:28:52;11.10;99.90
3406;DHT22;10008;48.682;9.016;2023-05-16T13:31:19;11.20;99.90
3406;DHT22;10008;48.682;9.016;2023-05-16T13:33:46;11.10;99.90
3406;DHT22;10008;48.682;9.016;2023-05-16T13:36:12;11.20;99.90
3406;DHT22;10008;48.682;9.016;2023-05-16T13:38:38;11.30;99.90
3406;DHT22;10008;48.682;9.016;2023-05-16T13:41:04;11.30;99.90
3406;DHT22;10008;48.682;9.016;2023-05-16T13:43:29;11.40;99.90
3406;DHT22;10008;48.682;9.016;2023-05-16T13:45:55;11.50;99.90
3406;DHT22;10008;48.682;9.016;2023-05-16T13:48:21;11.50;99.90
3406;DHT22;10008;48.682;9.016;2023-05-16T13:50:47;11.50;99.90
3406;DHT22;10008;48.682;9.016;2023-05-16T13:53:13;11.50;99.90
3406;DHT22;10008;48.682;9.016;2023-05-16T13:55:38;11.40;99.90
3406;DHT22;10008;48.682;9.016;2023-05-16T13:58:04;11.40;99.90
3406;DHT22;10008;48.682;9.016;2023-05-16T14:00:30;11.40;99.90
3406;DHT22;10008;48.682;9.016;2023-05-16T14:02:56;11.40;99.90
3406;DHT22;10008;48.682;9.016;2023-05-16T14:05:21;11.40;99.90
3406;DHT22;10008;48.682;9.016;2023-05-16T14:07:47;11.40;99.90
3406;DHT22;10008;48.682;9.016;2023-05-16T14:10:13;11.40;99.90
3406;DHT22;10008;48.682;9.016;2023-05-16T14:12:39;11.50;99.90
3406;DHT22;10008;48.682;9.016;2023-05-16T14:15:05;11.50;99.90
3406;DHT22;10008;48.682;9.016;2023-05-16T14:17:31;11.60;99.90
3406;DHT22;10008;48.682;9.016;2023-05-16T14:19:57;11.60;99.90
3406;DHT22;10008;48.682;9.016;2023-05-16T14:22:23;11.60;99.90
3406;DHT22;10008;48.682;9.016;2023-05-16T14:24:49;11.60;99.90
3406;DHT22;10008;48.682;9.016;2023-05-16T14:27:15;11.70;99.90
3406;DHT22;10008;48.682;9.016;2023-05-16T14:29:41;11.80;99.90
3406;DHT22;10008;48.682;9.016;2023-05-16T14:32:09;11.70;99.90
3406;DHT22;10008;48.682;9.016;2023-05-16T14:34:35;11.80;99.90
3406;DHT22;10008;48.682;9.016;2023-05-16T14:37:01;11.90;99.90
3406;DHT22;10008;48.682;9.016;2023-05-16T14:39:27;12.00;99.90
3406;DHT22;10008;48.682;9.016;2023-05-16T14:41:53;12.20;99.90
3406;DHT22;10008;48.682;9.016;2023-05-16T14:44:18;12.30;99.90
3406;DHT22;10008;48.682;9.016;2023-05-16T14:46:49;12.30;99.90
3406;DHT22;10008;48.682;9.016;2023-05-16T14:49:16;12.40;99.90
3406;DHT22;10008;48.682;9.016;2023-05-16T14:51:42;12.50;99.90
3406;DHT22;10008;48.682;9.016;2023-05-16T14:54:09;12.60;99.90
3406;DHT22;10008;48.682;9.016;2023-05-16T14:56:35;12.70;99.90
3406;DHT22;10008;48.682;9.016;2023-05-16T14:59:01;12.70;99.90
3406;DHT22;10008;48.682;9.016;2023-05-16T15:01:26;12.70;99.90
3406;DHT22;10008;48.682;9.016;2023-05-16T15:03:52;12.70;99.90
3406;DHT22;10008;48.682;9.016;2023-05-16T15:06:18;12.80;99.90
3406;DHT22;10008;48.682;9.016;2023-05-16T15:08:44;12.80;99.90
3406;DHT22;10008;48.682;9.016;2023-05-16T15:11:09;12.90;99.90
3406;DHT22;10008;48.682;9.016;2023-05-16T15:13:35;12.70;99.90
3406;DHT22;10008;48.682;9.016;2023-05-16T15:16:01;12.60;99.90
3406;DHT22;10008;48.682;9.016;2023-05-16T15:18:27;12.70;99.90
3406;DHT22;10008;48.682;9.016;2023-05-16T15:20:52;12.70;99.90
3406;DHT22;10008;48.682;9.016;2023-05-16T15:23:18;12.70;99.90
3406;DHT22;10008;48.682;9.016;2023-05-16T15:25:44;12.70;99.90
3406;DHT22;10008;48.682;9.016;2023-05-16T15:28:10;12.70;99.90
3406;DHT22;10008;48.682;9.016;2023-05-16T15:30:36;13.00;99.90
3406;DHT22;10008;48.682;9.016;2023-05-16T15:33:01;13.20;99.90
3406;DHT22;10008;48.682;9.016;2023-05-16T15:35:27;13.50;99.90
3406;DHT22;10008;48.682;9.016;2023-05-16T15:37:53;13.40;99.90
3406;DHT22;10008;48.682;9.016;2023-05-16T15:40:22;13.40;99.90
3406;DHT22;10008;48.682;9.016;2023-05-16T15:42:48;13.40;99.90
3406;DHT22;10008;48.682;9.016;2023-05-16T15:45:13;13.40;99.90
3406;DHT22;10008;48.682;9.016;2023-05-16T15:47:40;13.50;99.90
3406;DHT22;10008;48.682;9.016;2023-05-16T15:50:06;13.60;99.90
3406;DHT22;10008;48.682;9.016;2023-05-16T15:52:32;13.50;99.90
3406;DHT22;10008;48.682;9.016;2023-05-16T15:55:01;13.30;99.90
3406;DHT22;10008;48.682;9.016;2023-05-16T15:57:27;13.20;99.90
3406;DHT22;10008;48.682;9.016;2023-05-16T15:59:52;13.00;99.90
3406;DHT22;10008;48.682;9.016;2023-05-16T16:02:18;12.90;99.90
3406;DHT22;10008;48.682;9.016;2023-05-16T16:04:44;12.90;99.90
3406;DHT22;10008;48.682;9.016;2023-05-16T16:07:10;12.90;99.90
3406;DHT22;10008;48.682;9.016;2023-05-16T16:09:36;13.00;99.90
3406;DHT22;10008;48.682;9.016;2023-05-16T16:12:02;12.90;99.90